Morris, IL

12:21 AM CDT on August 20, 2017 (GMT -0500)
Morris

Weather History for KC09 - September, 2013

Change the Weather History Date:

Monday, September 9, 2013

  Actual Average (KARR) Record (KARR)
Temperature  
Mean Temperature 80 °F -  
Max Temperature 93 °F 76 °F 92 °F (2013)
Min Temperature 67 °F 50 °F 42 °F (1999)
Cooling Degree Days 15    
Growing Degree Days 30 (Base 50)    
Moisture  
Dew Point 71 °F    
Average Humidity 77    
Maximum Humidity 100    
Minimum Humidity 48    
Precipitation  
Precipitation 0.00 in - - ()
Sea Level Pressure  
Sea Level Pressure 29.90 in    
Wind  
Wind Speed 6 mph (South)    
Max Wind Speed 12 mph    
Max Gust Speed 9 mph    
Visibility 7 miles    
Events      
Averages and records for this station are not official NWS values.
T = Trace of Precipitation, MM = Missing Value Source: NWS Daily Summary

Daily Weather History Graph

Daily Weather History Graph

Search for Another Location

Airport or City:

Trip Planner

Search our weather history database for the weather conditions in past years. The results will help you decide how hot, cold, wet, or windy it might be!

Date:

Astronomy

Sep. 09, 2013 Rise Set
Actual Time 6:28 AM CDT 7:12 PM CDT
Civil Twilight 6:00 AM CDT 7:40 PM CDT
Nautical Twilight 5:27 AM CDT 8:13 PM CDT
Astronomical Twilight 4:52 AM CDT 8:48 PM CDT
Moon 10:53 AM CDT (9/9) 9:25 PM CDT (9/9)
Length of Visible Light 13h 40m
Length of Day
12h 44m
Waxing Crescent, 19% of the Moon is Illuminated
Sep 9
Waxing Crescent
Sep 12
First Quarter
Sep 19
Full
Sep 26
Last Quarter
Oct 4
New

Hourly Weather History & Observations

Time (CDT) Temp. Heat Index Dew Point Humidity Pressure Visibility Wind Dir Wind Speed Gust Speed Precip Events Conditions
12:15 AM 69.8 °F - 69.8 °F 100% 29.96 in 5.0 mi East 5.8 mph - N/A   Clear
12:35 AM 69.8 °F - 69.8 °F 100% 29.96 in 5.0 mi East 4.6 mph - N/A   Clear
12:55 AM 69.4 °F - 69.4 °F 100% 29.96 in 5.0 mi East 4.6 mph - N/A   Clear
1:15 AM 69.3 °F - 69.3 °F 100% 29.96 in 5.0 mi East 4.6 mph - N/A   Clear
1:35 AM 68.9 °F - 68.9 °F 100% 29.95 in 4.0 mi ESE 3.5 mph - N/A   Clear
1:55 AM 68.9 °F - 68.9 °F 100% 29.95 in 4.0 mi ESE 4.6 mph - N/A   Clear
2:15 AM 68.7 °F - 68.7 °F 100% 29.95 in 4.0 mi East 4.6 mph - N/A   Clear
2:35 AM 68.4 °F - 68.4 °F 100% 29.94 in 4.0 mi East 4.6 mph - N/A   Clear
2:55 AM 68.5 °F - 68.5 °F 100% 29.94 in 4.0 mi ESE 4.6 mph - N/A   Clear
3:15 AM 68.5 °F - 68.5 °F 100% 29.94 in 4.0 mi SE 4.6 mph - N/A   Clear
3:35 AM 68.4 °F - 68.4 °F 100% 29.93 in 4.0 mi SE 4.6 mph - N/A   Clear
3:55 AM 68.4 °F - 68.4 °F 100% 29.93 in 4.0 mi SE 3.5 mph - N/A   Clear
4:15 AM 68.0 °F - 68.0 °F 100% 29.93 in 3.0 mi SE 3.5 mph - N/A   Clear
4:35 AM 68.2 °F - 68.2 °F 100% 29.93 in 3.0 mi Calm Calm - N/A   Clear
4:55 AM 68.0 °F - 68.0 °F 100% 29.93 in 3.0 mi SSE 3.5 mph - N/A   Clear
5:15 AM 67.6 °F - 67.6 °F 100% 29.93 in 3.0 mi SE 4.6 mph - N/A   Clear
5:35 AM 68.0 °F - 68.0 °F 100% 29.91 in 3.0 mi SE 4.6 mph - N/A   Clear
5:55 AM 68.0 °F - 68.0 °F 100% 29.91 in 3.0 mi SE 4.6 mph - N/A   Clear
6:15 AM 68.4 °F - 68.4 °F 100% 29.91 in 3.0 mi SE 4.6 mph - N/A   Clear
6:35 AM 68.2 °F - 68.2 °F 100% 29.91 in 2.0 mi SSE 4.6 mph - N/A   Clear
6:55 AM 68.9 °F - 68.9 °F 100% 29.92 in 1.8 mi SSE 3.5 mph - N/A   Mist
7:15 AM 69.6 °F - 69.6 °F 100% 29.92 in 1.8 mi South 4.6 mph - N/A   Mist
7:35 AM 70.3 °F - 70.3 °F 100% 29.93 in 1.8 mi SSE 5.8 mph - N/A   Mist
7:55 AM 71.1 °F - 71.1 °F 100% 29.92 in 2.5 mi SSE 5.8 mph - N/A   Clear
8:15 AM 72.5 °F - 72.5 °F 100% 29.91 in 3.0 mi SSE 6.9 mph - N/A   Clear
8:35 AM 73.8 °F - 73.8 °F 100% 29.92 in 5.0 mi South 6.9 mph - N/A   Clear
8:55 AM 75.6 °F - 73.8 °F 94% 29.93 in 5.0 mi South 6.9 mph - N/A   Clear
9:15 AM 76.5 °F - 73.0 °F 89% 29.92 in 7.0 mi South 8.1 mph - N/A   Clear
9:35 AM 77.9 °F - 73.6 °F 86% 29.92 in 7.0 mi South 8.1 mph - N/A   Clear
9:55 AM 79.2 °F - 73.8 °F 83% 29.91 in 7.0 mi South 6.9 mph - N/A   Clear
10:15 AM 80.4 °F 85.5 °F 74.3 °F 82% 29.90 in 7.0 mi South 8.1 mph - N/A   Clear
10:35 AM 82.0 °F 87.7 °F 73.4 °F 75% 29.91 in 10.0 mi SSW 8.1 mph - N/A   Clear
10:55 AM 83.3 °F 89.6 °F 73.4 °F 72% 29.90 in 10.0 mi South 8.1 mph - N/A   Clear
11:15 AM 84.0 °F 90.8 °F 73.8 °F 71% 29.90 in 10.0 mi South 8.1 mph - N/A   Clear
11:35 AM 85.3 °F 92.2 °F 73.2 °F 67% 29.90 in 10.0 mi South 8.1 mph - N/A   Clear
11:55 AM 86.4 °F 94.2 °F 73.8 °F 66% 29.89 in 10.0 mi South 10.4 mph - N/A   Clear
12:15 PM 87.3 °F 94.9 °F 73.2 °F 63% 29.89 in 10.0 mi SSW 8.1 mph - N/A   Clear
12:35 PM 88.0 °F 95.6 °F 73.2 °F 61% 29.88 in 10.0 mi South 5.8 mph 9.2 mph N/A   Clear
12:55 PM 89.1 °F 97.0 °F 73.0 °F 59% 29.89 in 10.0 mi SSW 9.2 mph - N/A   Clear
1:15 PM 90.0 °F 97.9 °F 72.7 °F 57% 29.88 in 10.0 mi SW 10.4 mph - N/A   Clear
1:35 PM 90.5 °F 99.2 °F 73.2 °F 57% 29.88 in 10.0 mi SSW 9.2 mph - N/A   Clear
1:55 PM 91.0 °F 99.8 °F 73.2 °F 56% 29.87 in 10.0 mi South 9.2 mph - N/A   Clear
2:15 PM 91.4 °F 100.7 °F 73.8 °F 56% 29.86 in 10.0 mi SSW 10.4 mph - N/A   Clear
2:35 PM 91.9 °F 101.3 °F 73.6 °F 55% 29.85 in 10.0 mi South 9.2 mph - N/A   Clear
2:55 PM 92.7 °F 101.7 °F 73.2 °F 53% 29.85 in 10.0 mi SW 8.1 mph - N/A   Clear
3:15 PM 93.0 °F 101.9 °F 73.0 °F 52% 29.84 in 10.0 mi SW 8.1 mph - N/A   Clear
3:35 PM 92.8 °F 100.9 °F 72.3 °F 51% 29.84 in 10.0 mi SSW 9.2 mph - N/A   Clear
3:55 PM 93.4 °F 100.3 °F 71.2 °F 48% 29.84 in 10.0 mi SW 11.5 mph - N/A   Clear
4:15 PM 93.6 °F 101.3 °F 72.0 °F 49% 29.84 in 10.0 mi SW 10.4 mph - N/A   Clear
4:35 PM 93.4 °F 101.5 °F 72.0 °F 50% 29.84 in 10.0 mi SW 9.2 mph - N/A   Clear
4:55 PM 93.4 °F 100.9 °F 71.4 °F 49% 29.84 in 10.0 mi SW 9.2 mph - N/A   Clear
5:15 PM 93.2 °F 99.9 °F 71.1 °F 48% 29.84 in 10.0 mi SW 10.4 mph - N/A   Clear
5:35 PM 92.8 °F 99.2 °F 70.5 °F 48% 29.85 in 10.0 mi SW 10.4 mph - N/A   Clear
5:55 PM 91.8 °F 98.6 °F 71.4 °F 51% 29.84 in 10.0 mi SW 6.9 mph - N/A   Clear
6:15 PM 90.7 °F 96.9 °F 71.1 °F 52% 29.85 in 10.0 mi SW 6.9 mph - N/A   Clear
6:35 PM 89.2 °F 95.9 °F 71.6 °F 56% 29.85 in 10.0 mi SW 8.1 mph - N/A   Clear
6:55 PM 87.8 °F 93.8 °F 71.6 °F 58% 29.85 in 10.0 mi SSW 8.1 mph - N/A   Clear
7:15 PM 86.7 °F 92.5 °F 71.4 °F 60% 29.86 in 10.0 mi SW 8.1 mph - N/A   Clear
7:35 PM 86.0 °F 91.8 °F 71.4 °F 62% 29.86 in 10.0 mi SW 10.4 mph - N/A   Clear
7:55 PM 85.1 °F 90.8 °F 71.6 °F 64% 29.87 in 10.0 mi SW 8.1 mph - N/A   Clear
8:15 PM 84.0 °F 89.3 °F 71.8 °F 66% 29.87 in 10.0 mi SW 8.1 mph - N/A   Clear
8:35 PM 83.5 °F 88.8 °F 71.8 °F 68% 29.88 in 10.0 mi SW 8.1 mph - N/A   Clear
8:55 PM 82.8 °F 87.7 °F 71.8 °F 69% 29.88 in 10.0 mi SW 8.1 mph - N/A   Clear
9:15 PM 82.8 °F 87.7 °F 71.8 °F 69% 29.88 in 10.0 mi SW 9.2 mph - N/A   Clear
9:35 PM 82.2 °F 87.1 °F 71.8 °F 71% 29.89 in 10.0 mi SSW 9.2 mph - N/A   Clear
9:55 PM 81.9 °F 86.4 °F 71.8 °F 71% 29.89 in 10.0 mi SW 8.1 mph - N/A   Clear
10:15 PM 81.5 °F 85.9 °F 71.8 °F 72% 29.89 in 10.0 mi SW 9.2 mph - N/A   Clear
10:35 PM 80.8 °F 84.7 °F 71.6 °F 73% 29.89 in 10.0 mi SW 8.1 mph - N/A   Clear
10:55 PM 80.2 °F 84.0 °F 71.6 °F 75% 29.90 in 10.0 mi SW 6.9 mph - N/A   Clear
11:15 PM 79.3 °F - 71.2 °F 76% 29.90 in 10.0 mi SW 5.8 mph - N/A   Clear
11:35 PM 78.8 °F - 71.2 °F 78% 29.91 in 10.0 mi SW 5.8 mph - N/A   Clear
11:55 PM 78.1 °F - 70.9 °F 78% 29.91 in 10.0 mi SW 5.8 mph - N/A   Clear